sensor_id;sensor_type;location;lat;lon;timestamp;pressure;altitude;pressure_sealevel;temperature;humidity
56198;BME280;42700;42.524;12.052;2023-05-21T00:01:38;96232.25;;;18.67;100.00
56198;BME280;42700;42.524;12.052;2023-05-21T00:04:03;96575.94;;;18.80;100.00
56198;BME280;42700;42.524;12.052;2023-05-21T00:06:32;95682.31;;;18.55;100.00
56198;BME280;42700;42.524;12.052;2023-05-21T00:09:00;96441.25;;;18.81;100.00
56198;BME280;42700;42.524;12.052;2023-05-21T00:11:26;97606.34;;;19.26;100.00
56198;BME280;42700;42.524;12.052;2023-05-21T00:13:51;97657.38;;;19.32;100.00
56198;BME280;42700;42.524;12.052;2023-05-21T00:16:17;96424.97;;;18.93;100.00
56198;BME280;42700;42.524;12.052;2023-05-21T00:18:42;96310.38;;;18.92;100.00
56198;BME280;42700;42.524;12.052;2023-05-21T00:21:09;95814.47;;;18.78;100.00
56198;BME280;42700;42.524;12.052;2023-05-21T00:23:34;95748.91;;;18.74;100.00
56198;BME280;42700;42.524;12.052;2023-05-21T00:26:00;95536.84;;;18.67;100.00
56198;BME280;42700;42.524;12.052;2023-05-21T00:28:26;95071.78;;;18.53;100.00
56198;BME280;42700;42.524;12.052;2023-05-21T00:30:51;94788.75;;;18.44;100.00
56198;BME280;42700;42.524;12.052;2023-05-21T00:33:17;94840.59;;;18.44;100.00
56198;BME280;42700;42.524;12.052;2023-05-21T00:35:42;94807.06;;;18.42;100.00
56198;BME280;42700;42.524;12.052;2023-05-21T00:38:08;93261.44;;;17.94;100.00
56198;BME280;42700;42.524;12.052;2023-05-21T00:40:34;94295.50;;;18.25;100.00
56198;BME280;42700;42.524;12.052;2023-05-21T00:43:00;94523.13;;;18.29;100.00
56198;BME280;42700;42.524;12.052;2023-05-21T00:45:26;95646.81;;;18.63;100.00
56198;BME280;42700;42.524;12.052;2023-05-21T00:47:51;96893.09;;;19.04;100.00
56198;BME280;42700;42.524;12.052;2023-05-21T00:50:20;94963.47;;;18.39;100.00
56198;BME280;42700;42.524;12.052;2023-05-21T00:52:47;94359.88;;;18.17;100.00
56198;BME280;42700;42.524;12.052;2023-05-21T00:55:13;96317.53;;;18.81;100.00
56198;BME280;42700;42.524;12.052;2023-05-21T00:57:38;95526.47;;;18.55;100.00
56198;BME280;42700;42.524;12.052;2023-05-21T01:00:05;94060.88;;;18.04;100.00
56198;BME280;42700;42.524;12.052;2023-05-21T01:02:36;95392.16;;;18.45;100.00
56198;BME280;42700;42.524;12.052;2023-05-21T01:05:02;96402.25;;;18.79;100.00
56198;BME280;42700;42.524;12.052;2023-05-21T01:07:32;94687.06;;;18.23;100.00
56198;BME280;42700;42.524;12.052;2023-05-21T01:10:00;95829.88;;;18.57;100.00
56198;BME280;42700;42.524;12.052;2023-05-21T01:12:26;94922.81;;;18.26;100.00
56198;BME280;42700;42.524;12.052;2023-05-21T01:14:51;94763.47;;;18.17;100.00
56198;BME280;42700;42.524;12.052;2023-05-21T01:17:17;94039.69;;;17.94;100.00
56198;BME280;42700;42.524;12.052;2023-05-21T01:19:44;94511.88;;;18.04;100.00
56198;BME280;42700;42.524;12.052;2023-05-21T01:22:11;93637.81;;;17.73;100.00
56198;BME280;42700;42.524;12.052;2023-05-21T01:24:38;94342.00;;;17.89;100.00
56198;BME280;42700;42.524;12.052;2023-05-21T01:27:04;94492.78;;;17.92;100.00
56198;BME280;42700;42.524;12.052;2023-05-21T01:29:31;95028.34;;;18.08;100.00
56198;BME280;42700;42.524;12.052;2023-05-21T01:34:35;95151.09;;;18.07;100.00
56198;BME280;42700;42.524;12.052;2023-05-21T01:37:12;95153.22;;;18.05;100.00
56198;BME280;42700;42.524;12.052;2023-05-21T01:39:38;95427.38;;;18.09;100.00
56198;BME280;42700;42.524;12.052;2023-05-21T01:42:07;95161.91;;;17.97;100.00
56198;BME280;42700;42.524;12.052;2023-05-21T01:44:35;95911.31;;;18.21;100.00
56198;BME280;42700;42.524;12.052;2023-05-21T01:47:04;95517.06;;;18.08;100.00
56198;BME280;42700;42.524;12.052;2023-05-21T01:49:31;95524.09;;;18.04;100.00
56198;BME280;42700;42.524;12.052;2023-05-21T01:52:00;95865.13;;;18.14;100.00
56198;BME280;42700;42.524;12.052;2023-05-21T01:54:26;95735.13;;;18.10;100.00
56198;BME280;42700;42.524;12.052;2023-05-21T01:56:52;95615.91;;;18.06;100.00
56198;BME280;42700;42.524;12.052;2023-05-21T01:59:17;97709.31;;;18.79;100.00
56198;BME280;42700;42.524;12.052;2023-05-21T02:01:44;97365.84;;;18.68;100.00
56198;BME280;42700;42.524;12.052;2023-05-21T02:04:10;97573.63;;;18.75;100.00
56198;BME280;42700;42.524;12.052;2023-05-21T02:06:35;97499.97;;;18.76;100.00
56198;BME280;42700;42.524;12.052;2023-05-21T02:09:03;96645.59;;;18.49;100.00
56198;BME280;42700;42.524;12.052;2023-05-21T02:11:29;96711.44;;;18.52;100.00
56198;BME280;42700;42.524;12.052;2023-05-21T02:13:55;96590.75;;;18.50;100.00
56198;BME280;42700;42.524;12.052;2023-05-21T02:16:21;96776.84;;;18.57;100.00
56198;BME280;42700;42.524;12.052;2023-05-21T02:18:47;95730.25;;;18.28;100.00
56198;BME280;42700;42.524;12.052;2023-05-21T02:21:15;96506.09;;;18.53;100.00
56198;BME280;42700;42.524;12.052;2023-05-21T02:23:41;96748.16;;;18.63;100.00
56198;BME280;42700;42.524;12.052;2023-05-21T02:26:06;96911.97;;;18.70;100.00
56198;BME280;42700;42.524;12.052;2023-05-21T02:28:32;96507.78;;;18.59;100.00
56198;BME280;42700;42.524;12.052;2023-05-21T02:30:58;96097.56;;;18.48;100.00
56198;BME280;42700;42.524;12.052;2023-05-21T02:33:23;96935.19;;;18.76;100.00
56198;BME280;42700;42.524;12.052;2023-05-21T02:35:50;96902.44;;;18.79;100.00
56198;BME280;42700;42.524;12.052;2023-05-21T02:38:15;97005.53;;;18.85;100.00
56198;BME280;42700;42.524;12.052;2023-05-21T02:40:44;96568.88;;;18.69;100.00
56198;BME280;42700;42.524;12.052;2023-05-21T02:43:10;96795.91;;;18.78;100.00
56198;BME280;42700;42.524;12.052;2023-05-21T02:45:35;95967.75;;;18.52;100.00
56198;BME280;42700;42.524;12.052;2023-05-21T02:48:01;95288.31;;;18.30;100.00
56198;BME280;42700;42.524;12.052;2023-05-21T02:50:28;93882.91;;;17.86;100.00
56198;BME280;42700;42.524;12.052;2023-05-21T02:52:53;94332.31;;;18.02;100.00
56198;BME280;42700;42.524;12.052;2023-05-21T02:55:19;95148.44;;;18.26;100.00
56198;BME280;42700;42.524;12.052;2023-05-21T02:57:45;94148.63;;;17.95;100.00
56198;BME280;42700;42.524;12.052;2023-05-21T03:00:11;95059.88;;;18.21;100.00
56198;BME280;42700;42.524;12.052;2023-05-21T03:02:36;94241.47;;;17.96;100.00
56198;BME280;42700;42.524;12.052;2023-05-21T03:05:02;95092.88;;;18.22;100.00
56198;BME280;42700;42.524;12.052;2023-05-21T03:07:29;95566.84;;;18.40;100.00
56198;BME280;42700;42.524;12.052;2023-05-21T03:09:54;94811.19;;;18.20;100.00
56198;BME280;42700;42.524;12.052;2023-05-21T03:12:20;94744.16;;;18.15;100.00
56198;BME280;42700;42.524;12.052;2023-05-21T03:14:47;95291.78;;;18.36;100.00
56198;BME280;42700;42.524;12.052;2023-05-21T03:17:13;94096.53;;;17.96;100.00
56198;BME280;42700;42.524;12.052;2023-05-21T03:19:40;94591.69;;;18.12;100.00
56198;BME280;42700;42.524;12.052;2023-05-21T03:22:05;94897.13;;;18.20;100.00
56198;BME280;42700;42.524;12.052;2023-05-21T03:24:31;94987.84;;;18.23;100.00
56198;BME280;42700;42.524;12.052;2023-05-21T03:26:57;94530.56;;;18.09;100.00
56198;BME280;42700;42.524;12.052;2023-05-21T03:29:23;94273.56;;;18.01;100.00
56198;BME280;42700;42.524;12.052;2023-05-21T03:31:50;94787.09;;;18.15;100.00
56198;BME280;42700;42.524;12.052;2023-05-21T03:34:16;94436.72;;;18.04;100.00
56198;BME280;42700;42.524;12.052;2023-05-21T03:36:44;94503.19;;;18.07;100.00
56198;BME280;42700;42.524;12.052;2023-05-21T03:39:10;94691.66;;;18.09;100.00
56198;BME280;42700;42.524;12.052;2023-05-21T03:41:38;94366.69;;;18.00;100.00
56198;BME280;42700;42.524;12.052;2023-05-21T03:44:03;94646.31;;;18.07;100.00
56198;BME280;42700;42.524;12.052;2023-05-21T03:46:29;94982.84;;;18.17;100.00
56198;BME280;42700;42.524;12.052;2023-05-21T03:48:55;95477.19;;;18.31;100.00
56198;BME280;42700;42.524;12.052;2023-05-21T03:51:22;94730.81;;;18.10;100.00
56198;BME280;42700;42.524;12.052;2023-05-21T03:53:48;95044.31;;;18.18;100.00
56198;BME280;42700;42.524;12.052;2023-05-21T03:56:14;95712.50;;;18.42;100.00
56198;BME280;42700;42.524;12.052;2023-05-21T03:58:39;94825.28;;;18.12;100.00
56198;BME280;42700;42.524;12.052;2023-05-21T04:01:05;94209.88;;;17.93;100.00
56198;BME280;42700;42.524;12.052;2023-05-21T04:03:33;94159.19;;;17.91;100.00
56198;BME280;42700;42.524;12.052;2023-05-21T04:06:00;95044.81;;;18.20;100.00
56198;BME280;42700;42.524;12.052;2023-05-21T04:08:26;95662.50;;;18.41;100.00
56198;BME280;42700;42.524;12.052;2023-05-21T04:10:51;94949.25;;;18.19;100.00
56198;BME280;42700;42.524;12.052;2023-05-21T04:13:17;95543.75;;;18.39;100.00
56198;BME280;42700;42.524;12.052;2023-05-21T04:15:42;95105.44;;;18.26;100.00
56198;BME280;42700;42.524;12.052;2023-05-21T04:18:09;95666.22;;;18.45;100.00
56198;BME280;42700;42.524;12.052;2023-05-21T04:20:35;96496.31;;;18.74;100.00
56198;BME280;42700;42.524;12.052;2023-05-21T04:23:00;96169.88;;;18.65;100.00
56198;BME280;42700;42.524;12.052;2023-05-21T04:25:27;95135.75;;;18.32;100.00
56198;BME280;42700;42.524;12.052;2023-05-21T04:27:52;94803.44;;;18.19;100.00
56198;BME280;42700;42.524;12.052;2023-05-21T04:30:19;95187.06;;;18.31;100.00
56198;BME280;42700;42.524;12.052;2023-05-21T04:32:44;95533.53;;;18.41;100.00
56198;BME280;42700;42.524;12.052;2023-05-21T04:35:12;95557.16;;;18.44;100.00
56198;BME280;42700;42.524;12.052;2023-05-21T04:37:39;96084.38;;;18.61;100.00
56198;BME280;42700;42.524;12.052;2023-05-21T04:40:07;97551.47;;;19.15;100.00
56198;BME280;42700;42.524;12.052;2023-05-21T04:42:33;96174.22;;;18.71;100.00
56198;BME280;42700;42.524;12.052;2023-05-21T04:44:59;97450.50;;;19.12;100.00
56198;BME280;42700;42.524;12.052;2023-05-21T04:47:24;96216.19;;;18.77;100.00
56198;BME280;42700;42.524;12.052;2023-05-21T04:49:50;96268.59;;;18.74;100.00
56198;BME280;42700;42.524;12.052;2023-05-21T04:52:15;97175.13;;;19.07;100.00
56198;BME280;42700;42.524;12.052;2023-05-21T04:54:41;95825.28;;;18.62;100.00
56198;BME280;42700;42.524;12.052;2023-05-21T04:57:10;96886.28;;;18.96;100.00
56198;BME280;42700;42.524;12.052;2023-05-21T04:59:35;96481.66;;;18.87;100.00
56198;BME280;42700;42.524;12.052;2023-05-21T05:02:01;96721.63;;;18.94;100.00
56198;BME280;42700;42.524;12.052;2023-05-21T05:04:26;97307.16;;;19.17;100.00
56198;BME280;42700;42.524;12.052;2023-05-21T05:06:54;96705.78;;;18.97;100.00
56198;BME280;42700;42.524;12.052;2023-05-21T05:09:19;96815.34;;;19.02;100.00
56198;BME280;42700;42.524;12.052;2023-05-21T05:11:48;96353.38;;;18.87;100.00
56198;BME280;42700;42.524;12.052;2023-05-21T05:14:13;97072.09;;;19.11;100.00
56198;BME280;42700;42.524;12.052;2023-05-21T05:16:39;97821.72;;;19.38;100.00
56198;BME280;42700;42.524;12.052;2023-05-21T05:19:04;96878.56;;;19.05;100.00
56198;BME280;42700;42.524;12.052;2023-05-21T05:21:30;98258.84;;;19.50;100.00
56198;BME280;42700;42.524;12.052;2023-05-21T05:23:55;98353.06;;;19.57;100.00
56198;BME280;42700;42.524;12.052;2023-05-21T05:26:21;98137.66;;;19.50;100.00
56198;BME280;42700;42.524;12.052;2023-05-21T05:28:46;98294.03;;;19.55;100.00
56198;BME280;42700;42.524;12.052;2023-05-21T05:31:12;98302.72;;;19.57;100.00
56198;BME280;42700;42.524;12.052;2023-05-21T05:33:37;97808.16;;;19.44;100.00
56198;BME280;42700;42.524;12.052;2023-05-21T05:36:03;97607.41;;;19.36;100.00
56198;BME280;42700;42.524;12.052;2023-05-21T05:38:28;98416.00;;;19.62;100.00
56198;BME280;42700;42.524;12.052;2023-05-21T05:40:55;97553.56;;;19.36;100.00
56198;BME280;42700;42.524;12.052;2023-05-21T05:43:20;99259.47;;;19.89;100.00
56198;BME280;42700;42.524;12.052;2023-05-21T05:45:46;98860.56;;;19.82;100.00
56198;BME280;42700;42.524;12.052;2023-05-21T05:48:11;99172.63;;;19.94;100.00
56198;BME280;42700;42.524;12.052;2023-05-21T05:50:37;98314.25;;;19.64;100.00
56198;BME280;42700;42.524;12.052;2023-05-21T05:53:03;99195.66;;;19.96;100.00
56198;BME280;42700;42.524;12.052;2023-05-21T05:55:28;98858.91;;;19.88;100.00
56198;BME280;42700;42.524;12.052;2023-05-21T05:57:53;99347.50;;;20.03;100.00
56198;BME280;42700;42.524;12.052;2023-05-21T06:00:19;99495.66;;;20.12;100.00
56198;BME280;42700;42.524;12.052;2023-05-21T06:02:45;100482.31;;;20.48;100.00
56198;BME280;42700;42.524;12.052;2023-05-21T06:05:12;99798.69;;;20.25;100.00
56198;BME280;42700;42.524;12.052;2023-05-21T06:07:38;100725.22;;;20.56;100.00
56198;BME280;42700;42.524;12.052;2023-05-21T06:10:05;100575.06;;;20.55;100.00
56198;BME280;42700;42.524;12.052;2023-05-21T06:12:31;100912.72;;;20.70;100.00
56198;BME280;42700;42.524;12.052;2023-05-21T06:14:58;99409.84;;;20.22;100.00
56198;BME280;42700;42.524;12.052;2023-05-21T06:17:23;100630.44;;;20.59;100.00
56198;BME280;42700;42.524;12.052;2023-05-21T06:19:49;101313.34;;;20.87;100.00
56198;BME280;42700;42.524;12.052;2023-05-21T06:22:15;102088.00;;;21.14;100.00
56198;BME280;42700;42.524;12.052;2023-05-21T06:24:40;102351.25;;;21.32;100.00
56198;BME280;42700;42.524;12.052;2023-05-21T06:27:05;101447.13;;;21.09;100.00
56198;BME280;42700;42.524;12.052;2023-05-21T06:29:31;101916.00;;;21.23;100.00
56198;BME280;42700;42.524;12.052;2023-05-21T06:31:56;101857.09;;;21.16;100.00
56198;BME280;42700;42.524;12.052;2023-05-21T06:34:22;103643.50;;;21.77;100.00
56198;BME280;42700;42.524;12.052;2023-05-21T06:36:47;103105.66;;;21.68;100.00
56198;BME280;42700;42.524;12.052;2023-05-21T06:39:12;103168.56;;;21.71;100.00
56198;BME280;42700;42.524;12.052;2023-05-21T06:41:38;104450.59;;;22.16;100.00
56198;BME280;42700;42.524;12.052;2023-05-21T06:44:03;103540.44;;;21.93;100.00
56198;BME280;42700;42.524;12.052;2023-05-21T06:46:30;105358.00;;;22.58;100.00
56198;BME280;42700;42.524;12.052;2023-05-21T06:48:55;106005.56;;;22.94;100.00
56198;BME280;42700;42.524;12.052;2023-05-21T06:51:20;105032.38;;;22.64;100.00
56198;BME280;42700;42.524;12.052;2023-05-21T06:53:46;105030.78;;;22.60;100.00
56198;BME280;42700;42.524;12.052;2023-05-21T06:56:12;105723.69;;;22.88;100.00
56198;BME280;42700;42.524;12.052;2023-05-21T06:58:37;106038.91;;;22.98;100.00
56198;BME280;42700;42.524;12.052;2023-05-21T07:01:03;106794.34;;;23.25;100.00
56198;BME280;42700;42.524;12.052;2023-05-21T07:03:28;105826.94;;;23.07;100.00
56198;BME280;42700;42.524;12.052;2023-05-21T07:05:54;107075.28;;;23.48;100.00
56198;BME280;42700;42.524;12.052;2023-05-21T07:08:20;106594.03;;;23.36;100.00
56198;BME280;42700;42.524;12.052;2023-05-21T07:10:45;104073.22;;;22.58;100.00
56198;BME280;42700;42.524;12.052;2023-05-21T07:13:11;103101.00;;;22.28;100.00
56198;BME280;42700;42.524;12.052;2023-05-21T07:15:37;103776.19;;;22.43;100.00
56198;BME280;42700;42.524;12.052;2023-05-21T07:18:02;105524.81;;;23.08;100.00
56198;BME280;42700;42.524;12.052;2023-05-21T07:20:28;105787.69;;;23.16;100.00
56198;BME280;42700;42.524;12.052;2023-05-21T07:22:53;105573.72;;;23.27;100.00
56198;BME280;42700;42.524;12.052;2023-05-21T07:25:19;105852.69;;;23.41;100.00
56198;BME280;42700;42.524;12.052;2023-05-21T07:27:44;106711.81;;;23.64;100.00
56198;BME280;42700;42.524;12.052;2023-05-21T07:30:10;107635.97;;;23.92;100.00
56198;BME280;42700;42.524;12.052;2023-05-21T07:32:35;108205.69;;;24.18;100.00
56198;BME280;42700;42.524;12.052;2023-05-21T07:35:01;108503.94;;;24.28;100.00
56198;BME280;42700;42.524;12.052;2023-05-21T07:37:26;108641.72;;;24.35;100.00
56198;BME280;42700;42.524;12.052;2023-05-21T07:39:55;109328.41;;;24.48;100.00
56198;BME280;42700;42.524;12.052;2023-05-21T07:42:22;109080.69;;;24.40;100.00
56198;BME280;42700;42.524;12.052;2023-05-21T07:44:47;108862.06;;;24.23;100.00
56198;BME280;42700;42.524;12.052;2023-05-21T07:47:13;109328.31;;;24.39;100.00
56198;BME280;42700;42.524;12.052;2023-05-21T07:49:38;109035.34;;;24.39;100.00
56198;BME280;42700;42.524;12.052;2023-05-21T07:52:04;108773.22;;;24.32;100.00
56198;BME280;42700;42.524;12.052;2023-05-21T07:54:29;109224.00;;;24.38;100.00
56198;BME280;42700;42.524;12.052;2023-05-21T07:56:55;109386.59;;;24.58;100.00
56198;BME280;42700;42.524;12.052;2023-05-21T07:59:20;111013.66;;;25.10;100.00
56198;BME280;42700;42.524;12.052;2023-05-21T08:01:46;111367.41;;;25.20;100.00
56198;BME280;42700;42.524;12.052;2023-05-21T08:04:12;111377.47;;;25.46;100.00
56198;BME280;42700;42.524;12.052;2023-05-21T08:06:37;111460.72;;;25.62;100.00
56198;BME280;42700;42.524;12.052;2023-05-21T08:09:03;111108.91;;;25.63;100.00
56198;BME280;42700;42.524;12.052;2023-05-21T08:11:30;109694.69;;;25.01;100.00
56198;BME280;42700;42.524;12.052;2023-05-21T08:13:55;111076.44;;;25.40;100.00
56198;BME280;42700;42.524;12.052;2023-05-21T08:16:21;110681.34;;;25.16;100.00
56198;BME280;42700;42.524;12.052;2023-05-21T08:18:47;110600.63;;;25.23;100.00
56198;BME280;42700;42.524;12.052;2023-05-21T08:21:13;111710.09;;;25.67;100.00
56198;BME280;42700;42.524;12.052;2023-05-21T08:23:38;108849.44;;;24.73;100.00
56198;BME280;42700;42.524;12.052;2023-05-21T08:26:04;112062.69;;;25.81;100.00
56198;BME280;42700;42.524;12.052;2023-05-21T08:28:31;112301.03;;;26.19;100.00
56198;BME280;42700;42.524;12.052;2023-05-21T08:30:56;112731.00;;;26.60;100.00
56198;BME280;42700;42.524;12.052;2023-05-21T08:33:22;112165.94;;;26.74;100.00
56198;BME280;42700;42.524;12.052;2023-05-21T08:35:47;111730.72;;;26.55;100.00
56198;BME280;42700;42.524;12.052;2023-05-21T08:38:13;112538.09;;;26.83;100.00
56198;BME280;42700;42.524;12.052;2023-05-21T08:40:38;113603.84;;;27.03;100.00
56198;BME280;42700;42.524;12.052;2023-05-21T08:43:05;113805.75;;;27.24;100.00
56198;BME280;42700;42.524;12.052;2023-05-21T08:45:33;111072.72;;;26.34;100.00
56198;BME280;42700;42.524;12.052;2023-05-21T08:48:01;113755.16;;;27.17;100.00
56198;BME280;42700;42.524;12.052;2023-05-21T08:50:27;113766.38;;;27.35;100.00
56198;BME280;42700;42.524;12.052;2023-05-21T08:52:53;111336.44;;;26.56;100.00
56198;BME280;42700;42.524;12.052;2023-05-21T08:55:23;110849.94;;;26.44;100.00
56198;BME280;42700;42.524;12.052;2023-05-21T08:57:49;112149.31;;;27.13;100.00
56198;BME280;42700;42.524;12.052;2023-05-21T09:00:15;111614.00;;;27.05;100.00
56198;BME280;42700;42.524;12.052;2023-05-21T09:02:40;114040.59;;;27.98;100.00
56198;BME280;42700;42.524;12.052;2023-05-21T09:05:08;113876.41;;;28.01;100.00
56198;BME280;42700;42.524;12.052;2023-05-21T09:07:37;114447.38;;;28.30;100.00
56198;BME280;42700;42.524;12.052;2023-05-21T09:10:05;114860.59;;;28.44;100.00
56198;BME280;42700;42.524;12.052;2023-05-21T09:12:34;112997.34;;;27.70;100.00
56198;BME280;42700;42.524;12.052;2023-05-21T09:15:00;114450.75;;;28.12;100.00
56198;BME280;42700;42.524;12.052;2023-05-21T09:17:26;114268.19;;;28.14;100.00
56198;BME280;42700;42.524;12.052;2023-05-21T09:20:11;109322.75;;;26.63;100.00
56198;BME280;42700;42.524;12.052;2023-05-21T09:25:12;110488.41;;;26.89;100.00
56198;BME280;42700;42.524;12.052;2023-05-21T09:27:38;111378.22;;;27.16;100.00
56198;BME280;42700;42.524;12.052;2023-05-21T09:30:06;112823.50;;;27.60;100.00
56198;BME280;42700;42.524;12.052;2023-05-21T09:32:33;111985.31;;;27.40;100.00
56198;BME280;42700;42.524;12.052;2023-05-21T09:35:08;112845.69;;;27.66;100.00
56198;BME280;42700;42.524;12.052;2023-05-21T09:37:43;113059.38;;;27.69;100.00
56198;BME280;42700;42.524;12.052;2023-05-21T09:42:39;115464.81;;;28.65;100.00
56198;BME280;42700;42.524;12.052;2023-05-21T09:45:08;113544.94;;;28.01;100.00
56198;BME280;42700;42.524;12.052;2023-05-21T09:47:39;114527.09;;;28.33;100.00
56198;BME280;42700;42.524;12.052;2023-05-21T09:50:05;113799.91;;;28.04;100.00
56198;BME280;42700;42.524;12.052;2023-05-21T09:52:31;113824.06;;;27.96;100.00
56198;BME280;42700;42.524;12.052;2023-05-21T09:54:56;113801.41;;;27.99;100.00
56198;BME280;42700;42.524;12.052;2023-05-21T09:57:22;114494.19;;;28.33;100.00
56198;BME280;42700;42.524;12.052;2023-05-21T09:59:48;114765.91;;;28.49;100.00
56198;BME280;42700;42.524;12.052;2023-05-21T10:02:23;112083.84;;;27.66;100.00
56198;BME280;42700;42.524;12.052;2023-05-21T10:04:50;117419.41;;;29.30;100.00
56198;BME280;42700;42.524;12.052;2023-05-21T10:07:19;115739.53;;;28.80;100.00
56198;BME280;42700;42.524;12.052;2023-05-21T10:09:54;113214.88;;;27.93;100.00
56198;BME280;42700;42.524;12.052;2023-05-21T10:12:21;116406.13;;;28.96;100.00
56198;BME280;42700;42.524;12.052;2023-05-21T10:14:50;117521.41;;;29.33;100.00
56198;BME280;42700;42.524;12.052;2023-05-21T10:17:16;118945.31;;;29.63;100.00
56198;BME280;42700;42.524;12.052;2023-05-21T10:19:42;118029.94;;;29.34;100.00
56198;BME280;42700;42.524;12.052;2023-05-21T10:22:09;121131.03;;;30.34;100.00
56198;BME280;42700;42.524;12.052;2023-05-21T10:24:34;119774.06;;;29.82;100.00
56198;BME280;42700;42.524;12.052;2023-05-21T10:27:01;118567.53;;;29.12;100.00
56198;BME280;42700;42.524;12.052;2023-05-21T10:29:26;112570.88;;;27.22;100.00
56198;BME280;42700;42.524;12.052;2023-05-21T10:31:53;115033.63;;;28.02;100.00
56198;BME280;42700;42.524;12.052;2023-05-21T10:34:18;115137.81;;;28.13;100.00
56198;BME280;42700;42.524;12.052;2023-05-21T10:36:45;117749.25;;;29.15;100.00
56198;BME280;42700;42.524;12.052;2023-05-21T10:39:13;117975.53;;;29.39;100.00
56198;BME280;42700;42.524;12.052;2023-05-21T10:41:44;118615.97;;;29.89;100.00
56198;BME280;42700;42.524;12.052;2023-05-21T10:49:15;111624.06;;;27.67;100.00
56198;BME280;42700;42.524;12.052;2023-05-21T10:54:26;116443.28;;;29.39;100.00
56198;BME280;42700;42.524;12.052;2023-05-21T10:57:00;114864.75;;;29.00;100.00
56198;BME280;42700;42.524;12.052;2023-05-21T10:59:35;116026.13;;;29.54;100.00
56198;BME280;42700;42.524;12.052;2023-05-21T11:02:04;117950.97;;;30.03;100.00
56198;BME280;42700;42.524;12.052;2023-05-21T11:04:31;116803.88;;;29.65;100.00
56198;BME280;42700;42.524;12.052;2023-05-21T11:06:59;113356.03;;;28.73;100.00
56198;BME280;42700;42.524;12.052;2023-05-21T11:09:25;115648.06;;;29.34;100.00
56198;BME280;42700;42.524;12.052;2023-05-21T11:11:51;115602.91;;;29.53;100.00
56198;BME280;42700;42.524;12.052;2023-05-21T11:14:28;113962.56;;;28.96;100.00
56198;BME280;42700;42.524;12.052;2023-05-21T11:16:56;110464.34;;;28.07;100.00
56198;BME280;42700;42.524;12.052;2023-05-21T11:19:31;112903.91;;;28.60;100.00
56198;BME280;42700;42.524;12.052;2023-05-21T11:21:56;114354.69;;;29.06;100.00
56198;BME280;42700;42.524;12.052;2023-05-21T11:24:22;117173.03;;;29.81;100.00
56198;BME280;42700;42.524;12.052;2023-05-21T11:29:14;120569.78;;;30.80;100.00
56198;BME280;42700;42.524;12.052;2023-05-21T11:31:46;119627.41;;;30.34;100.00
56198;BME280;42700;42.524;12.052;2023-05-21T11:34:19;117614.38;;;29.77;100.00
56198;BME280;42700;42.524;12.052;2023-05-21T11:36:46;117211.19;;;29.78;100.00
56198;BME280;42700;42.524;12.052;2023-05-21T11:39:16;113405.88;;;29.00;100.00
56198;BME280;42700;42.524;12.052;2023-05-21T11:42:01;111714.03;;;28.50;100.00
56198;BME280;42700;42.524;12.052;2023-05-21T11:44:40;113749.25;;;29.08;100.00
56198;BME280;42700;42.524;12.052;2023-05-21T11:47:06;116955.97;;;29.74;100.00
56198;BME280;42700;42.524;12.052;2023-05-21T11:49:32;118481.56;;;29.92;100.00
56198;BME280;42700;42.524;12.052;2023-05-21T11:51:58;112929.59;;;28.42;100.00
56198;BME280;42700;42.524;12.052;2023-05-21T11:54:24;115562.78;;;28.88;100.00
56198;BME280;42700;42.524;12.052;2023-05-21T11:56:51;114643.78;;;28.54;100.00
56198;BME280;42700;42.524;12.052;2023-05-21T11:59:17;116069.31;;;28.95;100.00
56198;BME280;42700;42.524;12.052;2023-05-21T12:01:42;115110.69;;;28.74;100.00
56198;BME280;42700;42.524;12.052;2023-05-21T12:04:08;110854.31;;;27.71;100.00
56198;BME280;42700;42.524;12.052;2023-05-21T12:06:36;113848.78;;;28.58;100.00
56198;BME280;42700;42.524;12.052;2023-05-21T12:09:02;116199.63;;;29.09;100.00
56198;BME280;42700;42.524;12.052;2023-05-21T12:11:28;115141.34;;;28.80;100.00
56198;BME280;42700;42.524;12.052;2023-05-21T12:13:54;118326.06;;;29.58;100.00
56198;BME280;42700;42.524;12.052;2023-05-21T12:16:19;115723.34;;;28.83;100.00
56198;BME280;42700;42.524;12.052;2023-05-21T12:18:44;115233.38;;;28.65;100.00
56198;BME280;42700;42.524;12.052;2023-05-21T12:21:10;111355.69;;;27.58;100.00
56198;BME280;42700;42.524;12.052;2023-05-21T12:23:36;111788.72;;;27.52;100.00
56198;BME280;42700;42.524;12.052;2023-05-21T12:26:02;115950.09;;;28.52;100.00
56198;BME280;42700;42.524;12.052;2023-05-21T12:28:28;115757.66;;;28.37;100.00
56198;BME280;42700;42.524;12.052;2023-05-21T12:30:54;116913.25;;;28.62;100.00
56198;BME280;42700;42.524;12.052;2023-05-21T12:33:19;113201.50;;;27.65;100.00
56198;BME280;42700;42.524;12.052;2023-05-21T12:35:45;117187.88;;;28.64;100.00
56198;BME280;42700;42.524;12.052;2023-05-21T12:38:14;116839.00;;;28.61;100.00
56198;BME280;42700;42.524;12.052;2023-05-21T12:40:39;113755.66;;;27.68;100.00
56198;BME280;42700;42.524;12.052;2023-05-21T12:43:07;114305.94;;;27.67;100.00
56198;BME280;42700;42.524;12.052;2023-05-21T12:45:32;116320.50;;;28.15;100.00
56198;BME280;42700;42.524;12.052;2023-05-21T12:48:01;118973.38;;;28.86;100.00
56198;BME280;42700;42.524;12.052;2023-05-21T12:50:27;117970.91;;;28.56;100.00